createdAt,value
2016-06-16T00:00:40.553Z,989.59
2016-06-16T00:01:40.588Z,989.58
2016-06-16T00:02:40.638Z,989.6
2016-06-16T00:03:40.672Z,989.59
2016-06-16T00:04:40.721Z,989.62
2016-06-16T00:05:40.755Z,989.6
2016-06-16T00:06:40.790Z,989.56
2016-06-16T00:07:40.840Z,989.59
2016-06-16T00:08:40.875Z,989.6
2016-06-16T00:09:41.081Z,989.55
2016-06-16T00:10:41.709Z,989.52
2016-06-16T00:11:40.993Z,989.57
2016-06-16T00:12:41.043Z,989.57
2016-06-16T00:13:41.078Z,989.57
2016-06-16T00:14:41.127Z,989.58
2016-06-16T00:15:41.161Z,989.56
2016-06-16T00:16:41.196Z,989.59
2016-06-16T00:17:41.246Z,989.58
2016-06-16T00:18:41.280Z,989.58
2016-06-16T00:19:41.315Z,989.55
2016-06-16T00:20:41.365Z,989.51
2016-06-16T00:21:41.399Z,989.52
2016-06-16T00:22:41.449Z,989.5
2016-06-16T00:23:41.483Z,989.48
2016-06-16T00:24:41.533Z,989.48
2016-06-16T00:25:41.598Z,989.5
2016-06-16T00:26:41.601Z,989.57
2016-06-16T00:27:41.651Z,989.53
2016-06-16T00:28:41.686Z,989.52
2016-06-16T00:29:41.767Z,989.53
2016-06-16T00:30:41.771Z,989.55
2016-06-16T00:31:41.914Z,989.53
2016-06-16T00:32:41.839Z,989.5
2016-06-16T00:33:41.888Z,989.49
2016-06-16T00:34:41.923Z,989.47
2016-06-16T00:35:41.973Z,989.46
2016-06-16T00:36:42.007Z,989.49
2016-06-16T00:37:42.042Z,989.45
2016-06-16T00:38:42.092Z,989.46
2016-06-16T00:39:42.126Z,989.49
2016-06-16T00:40:42.160Z,989.46
2016-06-16T00:41:42.211Z,989.48
2016-06-16T00:42:42.244Z,989.51
2016-06-16T00:43:42.294Z,989.51
2016-06-16T00:44:42.329Z,989.52
2016-06-16T00:45:42.379Z,989.51
2016-06-16T00:46:42.475Z,989.52
2016-06-16T00:47:42.510Z,989.49
2016-06-16T00:48:42.560Z,989.47
2016-06-16T00:49:42.532Z,989.45
2016-06-16T00:50:42.629Z,989.45
2016-06-16T00:51:42.678Z,989.43
2016-06-16T00:52:42.713Z,989.42
2016-06-16T00:53:42.825Z,989.44
2016-06-16T00:54:42.734Z,989.45
2016-06-16T00:55:42.832Z,989.41
2016-06-16T00:56:42.959Z,989.43
2016-06-16T00:57:42.854Z,989.42
2016-06-16T00:58:42.950Z,989.43
2016-06-16T00:59:43.016Z,989.4
2016-06-16T01:00:43.034Z,989.45
2016-06-16T01:01:43.022Z,989.41
2016-06-16T01:02:43.056Z,989.43
2016-06-16T01:03:43.090Z,989.41
2016-06-16T01:04:43.156Z,989.45
2016-06-16T01:05:43.175Z,989.43
2016-06-16T01:06:43.224Z,989.41
2016-06-16T01:07:43.290Z,989.45
2016-06-16T01:08:43.403Z,989.45
2016-06-16T01:09:43.343Z,989.47
2016-06-16T01:10:43.425Z,989.49
2016-06-16T01:11:43.475Z,989.48
2016-06-16T01:12:43.540Z,989.47
2016-06-16T01:13:43.495Z,989.48
2016-06-16T01:14:43.609Z,989.5
2016-06-16T01:15:43.596Z,989.5
2016-06-16T01:16:43.615Z,989.51
2016-06-16T01:17:43.665Z,989.46
2016-06-16T01:18:43.699Z,989.47
2016-06-16T01:19:43.733Z,989.45
2016-06-16T01:20:43.784Z,989.46
2016-06-16T01:21:43.817Z,989.44
2016-06-16T01:22:43.852Z,989.44
2016-06-16T01:23:43.901Z,989.48
2016-06-16T01:24:43.936Z,989.48
2016-06-16T01:25:43.987Z,989.48
2016-06-16T01:26:44.021Z,989.51
2016-06-16T01:27:44.055Z,989.52
2016-06-16T01:28:44.104Z,989.54
2016-06-16T01:29:44.170Z,989.5
2016-06-16T01:30:44.298Z,989.51
2016-06-16T01:31:44.223Z,989.5
2016-06-16T01:32:44.258Z,989.49
2016-06-16T01:33:44.292Z,989.54
2016-06-16T01:34:44.342Z,989.55
2016-06-16T01:35:44.376Z,989.54
2016-06-16T01:36:44.441Z,989.56
2016-06-16T01:37:44.476Z,989.5
2016-06-16T01:38:44.495Z,989.52
2016-06-16T01:39:44.544Z,989.55
2016-06-16T01:40:44.578Z,989.54
2016-06-16T01:41:44.614Z,989.54
2016-06-16T01:42:44.664Z,989.56
2016-06-16T01:43:44.698Z,989.52
2016-06-16T01:44:44.748Z,989.56
2016-06-16T01:45:44.782Z,989.53
2016-06-16T01:46:44.910Z,989.54
2016-06-16T01:47:44.882Z,989.52
2016-06-16T01:48:44.900Z,989.48
2016-06-16T01:49:44.936Z,989.53
2016-06-16T01:50:44.984Z,989.54
2016-06-16T01:51:45.019Z,989.53
2016-06-16T01:52:45.054Z,989.49
2016-06-16T01:53:45.104Z,989.45
2016-06-16T01:54:45.137Z,989.47
2016-06-16T01:55:45.171Z,989.48
2016-06-16T01:56:45.222Z,989.43
2016-06-16T01:57:45.272Z,989.43
2016-06-16T01:58:45.306Z,989.43
2016-06-16T01:59:45.341Z,989.41
2016-06-16T02:00:45.375Z,989.4
2016-06-16T02:01:45.425Z,989.38
2016-06-16T02:02:45.460Z,989.38
2016-06-16T02:03:45.493Z,989.38
2016-06-16T02:04:45.544Z,989.38
2016-06-16T02:05:45.577Z,989.36
2016-06-16T02:06:45.628Z,989.36
2016-06-16T02:07:45.661Z,989.39
2016-06-16T02:08:45.697Z,989.36
2016-06-16T02:09:45.747Z,989.4
2016-06-16T02:10:46.406Z,989.39
2016-06-16T02:11:45.815Z,989.38
2016-06-16T02:12:45.865Z,989.4
2016-06-16T02:13:45.930Z,989.45
2016-06-16T02:14:45.933Z,989.43
2016-06-16T02:15:45.983Z,989.4
2016-06-16T02:16:46.034Z,989.41
2016-06-16T02:17:46.052Z,989.4
2016-06-16T02:18:46.102Z,989.38
2016-06-16T02:19:46.137Z,989.4
2016-06-16T02:20:46.265Z,989.4
2016-06-16T02:21:46.220Z,989.42
2016-06-16T02:22:46.255Z,989.42
2016-06-16T02:23:46.305Z,989.4
2016-06-16T02:24:46.339Z,989.39
2016-06-16T02:25:46.467Z,989.36
2016-06-16T02:26:46.892Z,989.36
2016-06-16T02:27:46.458Z,989.4
2016-06-16T02:28:46.493Z,989.41
2016-06-16T02:29:46.542Z,989.42
2016-06-16T02:30:46.576Z,989.43
2016-06-16T02:31:46.657Z,989.47
2016-06-16T02:32:46.661Z,989.43
2016-06-16T02:33:46.695Z,989.45
2016-06-16T02:34:46.730Z,989.48
2016-06-16T02:35:46.780Z,989.48
2016-06-16T02:36:46.830Z,989.46
2016-06-16T02:37:46.864Z,989.45
2016-06-16T02:38:46.898Z,989.47
2016-06-16T02:39:46.948Z,989.48
2016-06-16T02:40:46.982Z,989.49
2016-06-16T02:41:47.016Z,989.51
2016-06-16T02:42:47.113Z,989.51
2016-06-16T02:43:47.147Z,989.51
2016-06-16T02:44:47.136Z,989.55
2016-06-16T02:45:47.170Z,989.55
2016-06-16T02:46:47.219Z,989.55
2016-06-16T02:47:47.253Z,989.53
2016-06-16T02:48:47.288Z,989.57
2016-06-16T02:49:47.338Z,989.62
2016-06-16T02:50:47.372Z,989.58
2016-06-16T02:51:47.516Z,989.6
2016-06-16T02:52:47.457Z,989.59
2016-06-16T02:53:47.507Z,989.58
2016-06-16T02:54:47.541Z,989.6
2016-06-16T02:55:47.576Z,989.59
2016-06-16T02:56:47.609Z,989.61
2016-06-16T02:57:47.659Z,989.6
2016-06-16T02:58:47.694Z,989.63
2016-06-16T02:59:47.729Z,989.63
2016-06-16T03:00:47.779Z,989.61
2016-06-16T03:01:47.813Z,989.61
2016-06-16T03:02:47.847Z,989.6
2016-06-16T03:03:47.897Z,989.63
2016-06-16T03:04:47.931Z,989.62
2016-06-16T03:05:47.965Z,989.59
2016-06-16T03:06:48.015Z,989.62
2016-06-16T03:07:48.051Z,989.67
2016-06-16T03:08:48.084Z,989.65
2016-06-16T03:09:48.134Z,989.72
2016-06-16T03:10:48.168Z,989.66
2016-06-16T03:11:48.203Z,989.7
2016-06-16T03:12:48.253Z,989.67
2016-06-16T03:13:48.286Z,989.66
2016-06-16T03:14:48.321Z,989.69
2016-06-16T03:15:48.387Z,989.68
2016-06-16T03:16:48.406Z,989.73
2016-06-16T03:17:48.440Z,989.69
2016-06-16T03:18:48.490Z,989.72
2016-06-16T03:19:48.540Z,989.69
2016-06-16T03:20:48.574Z,989.71
2016-06-16T03:21:48.608Z,989.69
2016-06-16T03:22:48.642Z,989.72
2016-06-16T03:23:48.708Z,989.67
2016-06-16T03:24:48.728Z,989.74
2016-06-16T03:25:48.761Z,989.76
2016-06-16T03:26:48.826Z,989.75
2016-06-16T03:27:48.846Z,989.78
2016-06-16T03:28:48.880Z,989.76
2016-06-16T03:29:48.929Z,989.81
2016-06-16T03:30:48.964Z,989.82
2016-06-16T03:31:48.999Z,989.87
2016-06-16T03:32:49.048Z,989.84
2016-06-16T03:33:49.083Z,989.82
2016-06-16T03:34:49.117Z,989.77
2016-06-16T03:35:49.167Z,989.82
2016-06-16T03:36:49.202Z,989.82
2016-06-16T03:37:49.235Z,989.83
2016-06-16T03:38:49.285Z,989.81
2016-06-16T03:39:49.319Z,989.79
2016-06-16T03:40:49.354Z,989.81
2016-06-16T03:41:49.405Z,989.84
2016-06-16T03:42:49.453Z,989.85
2016-06-16T03:43:49.488Z,989.8
2016-06-16T03:44:49.523Z,989.83
2016-06-16T03:45:49.587Z,989.83
2016-06-16T03:46:49.607Z,989.81
2016-06-16T03:47:49.641Z,989.78
2016-06-16T03:48:49.676Z,989.79
2016-06-16T03:49:49.725Z,989.79
2016-06-16T03:50:49.761Z,989.81
2016-06-16T03:51:49.794Z,989.8
2016-06-16T03:52:49.844Z,989.79
2016-06-16T03:53:49.909Z,989.82
2016-06-16T03:54:49.913Z,989.84
2016-06-16T03:55:49.962Z,989.83
2016-06-16T03:56:49.997Z,989.85
2016-06-16T03:57:50.047Z,989.89
2016-06-16T03:58:50.082Z,989.87
2016-06-16T03:59:50.116Z,989.87
2016-06-16T04:00:50.166Z,989.89
2016-06-16T04:01:50.200Z,989.88
2016-06-16T04:02:50.234Z,989.86
2016-06-16T04:03:50.285Z,989.87
2016-06-16T04:04:50.318Z,989.87
2016-06-16T04:05:50.353Z,989.87
2016-06-16T04:06:50.402Z,989.9
2016-06-16T04:07:50.438Z,989.87
2016-06-16T04:08:50.471Z,989.9
2016-06-16T04:09:50.521Z,989.88
2016-06-16T04:10:50.556Z,989.91
2016-06-16T04:11:50.590Z,989.91
2016-06-16T04:12:50.640Z,989.93
2016-06-16T04:13:50.673Z,989.92
2016-06-16T04:14:50.724Z,989.89
2016-06-16T04:15:50.759Z,989.88
2016-06-16T04:16:50.812Z,989.88
2016-06-16T04:17:50.902Z,989.87
2016-06-16T04:18:50.975Z,989.84
2016-06-16T04:19:51.049Z,989.87
2016-06-16T04:20:51.139Z,989.82
2016-06-16T04:21:51.202Z,989.84
2016-06-16T04:22:51.251Z,989.84
2016-06-16T04:23:51.314Z,989.85
2016-06-16T04:24:51.379Z,989.84
2016-06-16T04:25:51.443Z,989.82
2016-06-16T04:26:51.472Z,989.8
2016-06-16T04:27:51.511Z,989.79
2016-06-16T04:28:51.566Z,989.79
2016-06-16T04:29:51.605Z,989.77
2016-06-16T04:30:51.644Z,989.77
2016-06-16T04:31:51.698Z,989.82
2016-06-16T04:32:51.735Z,989.83
2016-06-16T04:33:51.786Z,989.83
2016-06-16T04:34:51.823Z,989.81
2016-06-16T04:35:51.858Z,989.79
2016-06-16T04:36:51.910Z,989.82
2016-06-16T04:37:51.945Z,989.87
2016-06-16T04:38:51.980Z,989.85
2016-06-16T04:39:52.031Z,989.84
2016-06-16T04:40:52.066Z,989.87
2016-06-16T04:41:52.116Z,989.91
2016-06-16T04:42:52.230Z,989.91
2016-06-16T04:43:52.186Z,989.93
2016-06-16T04:44:52.299Z,989.86
2016-06-16T04:45:52.271Z,989.87
2016-06-16T04:46:52.305Z,989.89
2016-06-16T04:47:52.355Z,989.86
2016-06-16T04:48:52.390Z,989.83
2016-06-16T04:49:52.424Z,989.84
2016-06-16T04:50:52.474Z,989.86
2016-06-16T04:51:52.524Z,989.84
2016-06-16T04:52:52.559Z,989.88
2016-06-16T04:53:52.593Z,989.85
2016-06-16T04:54:52.643Z,989.88
2016-06-16T04:55:52.677Z,989.9
2016-06-16T04:56:52.711Z,989.94
2016-06-16T04:57:52.762Z,989.93
2016-06-16T04:58:52.811Z,989.96
2016-06-16T04:59:52.845Z,989.95
2016-06-16T05:00:53.114Z,990
2016-06-16T05:01:52.914Z,989.98
2016-06-16T05:02:52.964Z,989.97
2016-06-16T05:03:52.999Z,990.01
2016-06-16T05:04:53.033Z,989.99
2016-06-16T05:05:53.082Z,989.95
2016-06-16T05:06:53.117Z,989.96
2016-06-16T05:07:53.230Z,989.93
2016-06-16T05:08:53.217Z,989.98
2016-06-16T05:09:53.251Z,989.94
2016-06-16T05:10:53.285Z,989.89
2016-06-16T05:11:54.070Z,989.93
2016-06-16T05:12:53.371Z,989.91
2016-06-16T05:13:53.405Z,989.95
2016-06-16T05:14:53.439Z,989.97
2016-06-16T05:15:53.489Z,989.95
2016-06-16T05:16:53.522Z,989.98
2016-06-16T05:17:53.573Z,990
2016-06-16T05:18:53.607Z,990.02
2016-06-16T05:19:53.657Z,989.98
2016-06-16T05:20:53.691Z,989.96
2016-06-16T05:21:53.757Z,989.94
2016-06-16T05:22:53.776Z,989.94
2016-06-16T05:23:53.810Z,989.95
2016-06-16T05:24:53.860Z,989.98
2016-06-16T05:25:53.894Z,990.02
2016-06-16T05:26:54.273Z,990.03
2016-06-16T05:27:53.979Z,990.05
2016-06-16T05:28:54.013Z,990.08
2016-06-16T05:29:54.062Z,990.05
2016-06-16T05:30:54.096Z,990.05
2016-06-16T05:31:54.147Z,990.06
2016-06-16T05:32:54.838Z,990.03
2016-06-16T05:33:54.231Z,990.04
2016-06-16T05:34:54.578Z,990.04
2016-06-16T05:35:54.316Z,990.06
2016-06-16T05:36:54.350Z,990.08
2016-06-16T05:37:54.509Z,990.07
2016-06-16T05:38:54.434Z,990.04
2016-06-16T05:39:54.468Z,990.07
2016-06-16T05:40:54.627Z,990.06
2016-06-16T05:41:54.709Z,990.06
2016-06-16T05:42:54.619Z,990.02
2016-06-16T05:43:54.684Z,990.03
2016-06-16T05:44:54.750Z,990.07
2016-06-16T05:45:54.815Z,990.01
2016-06-16T05:46:54.943Z,990.01
2016-06-16T05:47:54.820Z,990.03
2016-06-16T05:48:54.902Z,990.02
2016-06-16T05:49:54.937Z,989.98
2016-06-16T05:50:54.987Z,989.97
2016-06-16T05:51:54.958Z,989.95
2016-06-16T05:52:55.086Z,989.99
2016-06-16T05:53:55.105Z,989.97
2016-06-16T05:54:55.140Z,989.97
2016-06-16T05:55:55.128Z,989.97
2016-06-16T05:56:55.302Z,989.99
2016-06-16T05:57:55.290Z,990
2016-06-16T05:58:55.433Z,990.01
2016-06-16T05:59:55.451Z,989.96
2016-06-16T06:00:55.423Z,990.02
2016-06-16T06:01:55.458Z,989.98
2016-06-16T06:02:55.508Z,989.97
2016-06-16T06:03:55.620Z,990.02
2016-06-16T06:04:55.639Z,990.01
2016-06-16T06:05:55.548Z,990
2016-06-16T06:06:55.582Z,990.02
2016-06-16T06:07:55.633Z,990.04
2016-06-16T06:08:55.668Z,990.08
2016-06-16T06:09:55.702Z,990.04
2016-06-16T06:10:55.752Z,990.09
2016-06-16T06:11:55.786Z,990.05
2016-06-16T06:12:55.913Z,990.06
2016-06-16T06:13:55.994Z,990.04
2016-06-16T06:14:55.920Z,989.98
2016-06-16T06:15:55.954Z,990.02
2016-06-16T06:16:56.004Z,990.02
2016-06-16T06:17:56.038Z,990.07
2016-06-16T06:18:56.088Z,990.06
2016-06-16T06:19:56.123Z,990.11
2016-06-16T06:20:56.157Z,990.1
2016-06-16T06:21:56.208Z,990.12
2016-06-16T06:22:56.241Z,990.08
2016-06-16T06:23:56.464Z,990.06
2016-06-16T06:24:56.325Z,990.06
2016-06-16T06:25:56.470Z,990.05
2016-06-16T06:26:56.410Z,990.08
2016-06-16T06:27:56.460Z,990.08
2016-06-16T06:28:56.494Z,990.08
2016-06-16T06:29:56.544Z,990.05
2016-06-16T06:30:56.578Z,990.05
2016-06-16T06:31:56.628Z,990.1
2016-06-16T06:32:56.662Z,990.09
2016-06-16T06:33:56.712Z,990.11
2016-06-16T06:34:56.794Z,990.11
2016-06-16T06:35:56.782Z,990.17
2016-06-16T06:36:56.832Z,990.15
2016-06-16T06:37:56.865Z,990.15
2016-06-16T06:38:56.915Z,990.15
2016-06-16T06:39:56.950Z,990.14
2016-06-16T06:40:57.000Z,990.16
2016-06-16T06:41:57.034Z,990.21
2016-06-16T06:42:57.084Z,990.2
2016-06-16T06:43:57.118Z,990.22
2016-06-16T06:44:57.168Z,990.25
2016-06-16T06:45:57.202Z,990.28
2016-06-16T06:46:57.252Z,990.27
2016-06-16T06:47:57.302Z,990.25
2016-06-16T06:48:57.337Z,990.27
2016-06-16T06:49:57.372Z,990.26
2016-06-16T06:50:57.422Z,990.24
2016-06-16T06:51:57.455Z,990.27
2016-06-16T06:52:57.506Z,990.26
2016-06-16T06:53:57.539Z,990.25
2016-06-16T06:54:57.871Z,990.28
2016-06-16T06:55:57.749Z,990.25
2016-06-16T06:56:57.658Z,990.25
2016-06-16T06:57:57.771Z,990.23
2016-06-16T06:58:58.164Z,990.25
2016-06-16T06:59:57.902Z,990.22
2016-06-16T07:00:57.827Z,990.23
2016-06-16T07:01:57.908Z,990.24
2016-06-16T07:02:57.927Z,990.27
2016-06-16T07:03:57.962Z,990.26
2016-06-16T07:04:57.995Z,990.27
2016-06-16T07:05:58.045Z,990.26
2016-06-16T07:06:58.080Z,990.27
2016-06-16T07:07:58.130Z,990.26
2016-06-16T07:08:58.180Z,990.25
2016-06-16T07:09:58.245Z,990.31
2016-06-16T07:10:58.248Z,990.34
2016-06-16T07:11:58.736Z,990.35
2016-06-16T07:12:58.551Z,990.32
2016-06-16T07:13:58.429Z,990.33
2016-06-16T07:14:58.416Z,990.31
2016-06-16T07:15:58.452Z,990.33
2016-06-16T07:16:58.502Z,990.37
2016-06-16T07:17:58.551Z,990.35
2016-06-16T07:18:58.585Z,990.35
2016-06-16T07:19:58.636Z,990.37
2016-06-16T07:20:58.795Z,990.34
2016-06-16T07:21:58.876Z,990.34
2016-06-16T07:22:58.910Z,990.32
2016-06-16T07:23:59.023Z,990.3
2016-06-16T07:24:58.886Z,990.38
2016-06-16T07:26:00.107Z,990.4
2016-06-16T07:26:58.953Z,990.35
2016-06-16T07:27:58.972Z,990.33
2016-06-16T07:28:59.022Z,990.35
2016-06-16T07:29:59.479Z,990.34
2016-06-16T07:30:59.090Z,990.27
2016-06-16T07:31:59.140Z,990.22
2016-06-16T07:32:59.175Z,990.26
2016-06-16T07:33:59.226Z,990.2
2016-06-16T07:48:36.786Z,990.24
2016-06-16T07:48:37.708Z,990.26
2016-06-16T07:48:54.318Z,990.28
2016-06-16T07:49:54.352Z,990.24
2016-06-16T07:50:54.402Z,990.22
2016-06-16T07:51:54.436Z,990.19
2016-06-16T07:52:54.486Z,990.18
2016-06-16T07:53:54.520Z,990.14
2016-06-16T07:54:54.571Z,990.17
2016-06-16T07:55:54.605Z,990.15
2016-06-16T07:56:54.655Z,990.14
2016-06-16T07:57:54.688Z,990.15
2016-06-16T07:58:54.738Z,990.16
2016-06-16T07:59:54.789Z,990.14
2016-06-16T08:00:54.823Z,990.11
2016-06-16T08:01:54.873Z,990.05
2016-06-16T08:02:54.908Z,990.07
2016-06-16T08:03:54.957Z,990.08
2016-06-16T08:04:55.132Z,990.06
2016-06-16T08:05:55.088Z,990.06
2016-06-16T08:06:55.202Z,990.07
2016-06-16T08:07:55.127Z,990.08
2016-06-16T08:08:55.161Z,990.11
2016-06-16T08:09:55.242Z,990.1
2016-06-16T08:10:55.261Z,990.14
2016-06-16T08:11:55.294Z,990.14
2016-06-16T08:12:55.470Z,990.15
2016-06-16T08:13:55.379Z,990.16
2016-06-16T08:14:55.428Z,990.15
2016-06-16T08:15:55.479Z,990.16
2016-06-16T08:16:55.513Z,990.12
2016-06-16T08:17:55.579Z,990.1
2016-06-16T08:18:55.645Z,990.1
2016-06-16T08:19:55.647Z,990.08
2016-06-16T08:20:55.681Z,990.05
2016-06-16T08:21:55.732Z,990.04
2016-06-16T08:22:55.797Z,990.03
2016-06-16T08:23:55.816Z,990.08
2016-06-16T08:24:55.865Z,990.1
2016-06-16T08:25:55.899Z,990.1
2016-06-16T08:26:56.356Z,990.12
2016-06-16T08:27:56.000Z,990.14
2016-06-16T08:28:56.034Z,990.14
2016-06-16T08:29:56.084Z,990.17
2016-06-16T08:30:56.119Z,990.18
2016-06-16T08:31:56.168Z,990.18
2016-06-16T08:32:56.218Z,990.17
2016-06-16T08:33:56.268Z,990.14
2016-06-16T08:34:56.319Z,990.15
2016-06-16T08:35:56.338Z,990.15
2016-06-16T08:36:56.388Z,990.22
2016-06-16T08:37:56.452Z,990.21
2016-06-16T08:38:56.472Z,990.19
2016-06-16T08:39:56.506Z,990.2
2016-06-16T08:40:56.556Z,990.29
2016-06-16T08:41:56.699Z,990.22
2016-06-16T08:42:56.641Z,990.23
2016-06-16T08:43:56.691Z,990.19
2016-06-16T08:44:56.819Z,990.22
2016-06-16T08:45:56.884Z,990.22
2016-06-16T08:46:56.825Z,990.15
2016-06-16T08:47:56.858Z,990.18
2016-06-16T08:48:23.862Z,990.18
2016-06-16T08:49:23.912Z,990.17
2016-06-16T08:50:23.963Z,990.13
2016-06-16T08:51:23.996Z,990.13
2016-06-16T08:52:24.030Z,990.12
2016-06-16T08:53:24.081Z,990.15
2016-06-16T08:54:24.131Z,990.17
2016-06-16T08:55:24.181Z,990.2
2016-06-16T08:56:24.214Z,990.13
2016-06-16T08:57:24.265Z,990.13
2016-06-16T08:58:24.314Z,990.17
2016-06-16T08:59:24.349Z,990.14
2016-06-16T09:00:24.399Z,990.09
2016-06-16T09:01:24.433Z,990.09
2016-06-16T09:02:24.514Z,990.1
2016-06-16T09:03:24.517Z,990.1
2016-06-16T09:04:24.567Z,990.14
2016-06-16T09:05:24.634Z,990.15
2016-06-16T09:06:24.698Z,990.15
2016-06-16T09:07:24.701Z,990.14
2016-06-16T09:08:24.751Z,990.13
2016-06-16T09:09:24.802Z,990.15
2016-06-16T09:10:24.852Z,990.13
2016-06-16T09:11:24.886Z,990.05
2016-06-16T09:12:24.935Z,989.99
2016-06-16T09:13:25.017Z,990
2016-06-16T09:14:25.020Z,990
2016-06-16T09:15:25.070Z,990.01
2016-06-16T09:16:25.120Z,990.03
2016-06-16T09:17:25.154Z,990.05
2016-06-16T09:18:25.204Z,990.07
2016-06-16T09:19:25.364Z,990.03
2016-06-16T09:20:25.429Z,989.99
2016-06-16T09:21:25.386Z,989.99
2016-06-16T09:22:25.419Z,989.97
2016-06-16T09:23:25.438Z,989.96
2016-06-16T09:24:25.520Z,989.96
2016-06-16T09:25:25.554Z,989.96
2016-06-16T09:26:26.245Z,989.98
2016-06-16T09:27:25.638Z,989.97
2016-06-16T09:28:25.735Z,990.02
2016-06-16T09:29:25.722Z,990.05
2016-06-16T09:30:25.757Z,990.11
2016-06-16T09:31:25.900Z,990.09
2016-06-16T09:32:25.841Z,990.1
2016-06-16T09:33:25.923Z,990.11
2016-06-16T09:34:26.159Z,990.09
2016-06-16T09:35:25.991Z,990.11
2016-06-16T09:36:26.338Z,990.14
2016-06-16T09:37:26.216Z,990.14
2016-06-16T09:38:26.124Z,990.15
2016-06-16T09:39:26.300Z,990.15
2016-06-16T09:40:26.335Z,990.14
2016-06-16T09:41:26.728Z,990.11
2016-06-16T09:42:26.325Z,990.11
2016-06-16T09:43:26.359Z,990.14
2016-06-16T09:44:26.409Z,990.12
2016-06-16T09:45:26.584Z,990.15
2016-06-16T09:46:27.494Z,990.14
2016-06-16T09:47:26.606Z,990.12
2016-06-16T09:48:26.780Z,990.17
2016-06-16T09:49:26.722Z,990.12
2016-06-16T09:50:26.708Z,990.11
2016-06-16T09:51:26.790Z,990.12
2016-06-16T09:52:26.950Z,990.09
2016-06-16T09:53:26.890Z,990.08
2016-06-16T09:54:27.017Z,990.08
2016-06-16T09:55:27.131Z,990.07
2016-06-16T09:56:27.759Z,990.12
2016-06-16T09:57:27.152Z,990.1
2016-06-16T09:58:27.061Z,990.14
2016-06-16T09:59:27.111Z,990.12
2016-06-16T10:00:27.177Z,990.11
2016-06-16T10:01:27.336Z,990.11
2016-06-16T10:02:27.512Z,990.13
2016-06-16T10:03:27.437Z,990.12
2016-06-16T10:04:27.596Z,990.11
2016-06-16T10:05:27.396Z,990.14
2016-06-16T10:06:27.524Z,990.17
2016-06-16T10:07:27.713Z,990.16
2016-06-16T10:08:27.561Z,990.16
2016-06-16T10:09:27.689Z,990.17
2016-06-16T10:10:27.973Z,990.12
2016-06-16T10:11:27.726Z,990.14
2016-06-16T10:12:28.011Z,990.19
2016-06-16T10:13:27.764Z,990.18
2016-06-16T10:14:27.830Z,990.17
2016-06-16T10:15:27.864Z,990.18
2016-06-16T10:16:28.445Z,990.16
2016-06-16T10:17:28.605Z,990.11
2016-06-16T10:18:28.013Z,990.09
2016-06-16T10:19:28.080Z,990.09
2016-06-16T10:20:28.098Z,990.1
2016-06-16T10:21:28.148Z,990.09
2016-06-16T10:22:28.198Z,990.12
2016-06-16T10:23:28.263Z,990.1
2016-06-16T10:24:28.282Z,990.11
2016-06-16T10:25:28.348Z,990.12
2016-06-16T10:26:28.522Z,990.13
2016-06-16T10:27:28.433Z,990.13
2016-06-16T10:28:28.482Z,990.11
2016-06-16T10:29:28.548Z,990.11
2016-06-16T10:30:28.582Z,990.1
2016-06-16T10:31:28.648Z,990.08
2016-06-16T10:32:28.776Z,990.09
2016-06-16T10:33:28.841Z,990.13
2016-06-16T10:34:28.765Z,990.15
2016-06-16T10:35:28.910Z,990.13
2016-06-16T10:36:28.866Z,990.13
2016-06-16T10:37:28.931Z,990.15
2016-06-16T10:38:28.966Z,990.16
2016-06-16T10:39:29.000Z,990.16
2016-06-16T10:40:29.051Z,990.17
2016-06-16T10:41:29.100Z,990.21
2016-06-16T10:42:29.150Z,990.2
2016-06-16T10:43:29.246Z,990.19
2016-06-16T10:44:29.250Z,990.17
2016-06-16T10:45:29.300Z,990.19
2016-06-16T10:46:29.913Z,990.23
2016-06-16T10:47:29.541Z,990.23
2016-06-16T10:48:29.512Z,990.24
2016-06-16T10:49:29.922Z,990.3
2016-06-16T10:50:29.675Z,990.28
2016-06-16T10:51:29.756Z,990.25
2016-06-16T10:52:29.743Z,990.26
2016-06-16T10:53:30.371Z,990.28
2016-06-16T10:54:30.016Z,990.29
2016-06-16T10:55:30.127Z,990.29
2016-06-16T10:56:30.787Z,990.32
2016-06-16T10:59:23.387Z,990.35
2016-06-16T11:00:23.842Z,990.31
2016-06-16T11:01:23.596Z,990.31
2016-06-16T11:02:23.021Z,990.31
2016-06-16T11:03:23.024Z,990.3
2016-06-16T11:04:23.028Z,990.29
2016-06-16T11:07:49.102Z,990.32
2016-06-16T11:09:50.233Z,990.28
2016-06-16T11:10:50.393Z,990.28
2016-06-16T11:11:50.380Z,990.26
2016-06-16T11:13:50.824Z,990.24
2016-06-16T11:14:50.827Z,990.21
2016-06-16T11:15:50.517Z,990.24
2016-06-16T11:16:50.567Z,990.22
2016-06-16T11:17:50.617Z,990.25
2016-06-16T11:18:50.683Z,990.24
2016-06-16T11:19:50.842Z,990.23
2016-06-16T11:20:50.908Z,990.21
2016-06-16T11:21:51.021Z,990.28
2016-06-16T11:22:50.930Z,990.29
2016-06-16T11:23:50.980Z,990.27
2016-06-16T11:24:51.045Z,990.3
2016-06-16T11:25:51.095Z,990.28
2016-06-16T11:26:51.332Z,990.28
2016-06-16T11:27:51.117Z,990.33
2016-06-16T11:28:51.261Z,990.3
2016-06-16T11:29:51.248Z,990.32
2016-06-16T11:30:51.860Z,990.3
2016-06-16T11:31:51.316Z,990.29
2016-06-16T11:32:51.366Z,990.28
2016-06-16T11:33:51.448Z,990.24
2016-06-16T11:34:51.466Z,990.26
2016-06-16T11:35:51.517Z,990.26
2016-06-16T11:36:51.567Z,990.28
2016-06-16T11:37:51.616Z,990.32
2016-06-16T11:38:52.087Z,990.3
2016-06-16T11:39:51.716Z,990.34
2016-06-16T11:40:51.751Z,990.28
2016-06-16T11:41:51.894Z,990.3
2016-06-16T11:42:51.850Z,990.28
2016-06-16T11:43:51.900Z,990.28
2016-06-16T11:44:52.184Z,990.24
2016-06-16T11:45:52.016Z,990.26
2016-06-16T11:46:52.051Z,990.25
2016-06-16T11:47:52.100Z,990.26
2016-06-16T11:48:52.150Z,990.23
2016-06-16T11:49:52.199Z,990.25
2016-06-16T11:50:52.249Z,990.25
2016-06-16T11:51:52.878Z,990.24
2016-06-16T11:52:52.663Z,990.27
2016-06-16T11:53:52.384Z,990.22
2016-06-16T11:54:52.434Z,990.21
2016-06-16T11:55:52.484Z,990.22
2016-06-16T11:56:52.534Z,990.17
2016-06-16T11:57:52.584Z,990.15
2016-06-16T11:58:52.635Z,990.13
2016-06-16T11:59:52.778Z,990.12
2016-06-16T12:00:52.733Z,990.1
2016-06-16T12:01:52.784Z,990.12
2016-06-16T12:02:52.834Z,990.08
2016-06-16T12:03:52.899Z,990.05
2016-06-16T12:04:53.043Z,990.05
2016-06-16T12:05:52.968Z,990.04
2016-06-16T12:06:53.018Z,990.02
2016-06-16T12:07:53.068Z,990.05
2016-06-16T12:08:53.227Z,990.05
2016-06-16T12:09:53.168Z,990
2016-06-16T12:10:53.218Z,990.03
2016-06-16T12:11:53.267Z,990.03
2016-06-16T12:12:53.317Z,990
2016-06-16T12:13:53.367Z,990.01
2016-06-16T12:14:53.418Z,990
2016-06-16T12:15:53.468Z,990.03
2016-06-16T12:16:53.501Z,989.99
2016-06-16T12:17:53.786Z,990.01
2016-06-16T12:18:53.602Z,989.97
2016-06-16T12:19:53.839Z,989.96
2016-06-16T12:20:53.702Z,989.9
2016-06-16T12:21:53.752Z,989.9
2016-06-16T12:22:53.801Z,989.85
2016-06-16T12:23:53.851Z,989.9
2016-06-16T12:24:53.949Z,989.88
2016-06-16T12:25:53.951Z,989.84
2016-06-16T12:26:54.001Z,989.81
2016-06-16T12:27:54.051Z,989.86
2016-06-16T12:28:54.086Z,989.86
2016-06-16T12:29:54.136Z,989.88
2016-06-16T12:30:54.217Z,989.91
2016-06-16T12:31:54.236Z,989.87
2016-06-16T12:32:54.739Z,989.94
2016-06-16T12:33:54.335Z,989.91
2016-06-16T12:34:54.385Z,989.91
2016-06-16T12:35:54.466Z,989.87
2016-06-16T12:36:54.485Z,989.82
2016-06-16T12:37:54.536Z,989.83
2016-06-16T12:38:54.601Z,989.81
2016-06-16T12:39:54.619Z,989.81
2016-06-16T12:40:54.670Z,989.8
2016-06-16T12:41:54.719Z,989.81
2016-06-16T12:42:54.784Z,989.82
2016-06-16T12:43:54.820Z,989.85
2016-06-16T12:44:54.853Z,989.85
2016-06-16T12:45:54.997Z,989.81
2016-06-16T12:46:55.235Z,989.81
2016-06-16T12:47:55.066Z,989.8
2016-06-16T12:48:55.053Z,989.8
2016-06-16T12:49:55.150Z,989.77